sensor_id;sensor_type;location;lat;lon;timestamp;temperature;humidity
62916;DHT22;49010;51.230;-2.306;2022-12-18T00:02:03;-2.70;99.90
62916;DHT22;49010;51.230;-2.306;2022-12-18T00:05:47;-2.70;99.90
62916;DHT22;49010;51.230;-2.306;2022-12-18T00:09:29;-2.80;99.90
62916;DHT22;49010;51.230;-2.306;2022-12-18T00:13:20;-2.80;99.90
62916;DHT22;49010;51.230;-2.306;2022-12-18T00:17:02;-2.80;99.90
62916;DHT22;49010;51.230;-2.306;2022-12-18T00:20:44;-2.80;99.90
62916;DHT22;49010;51.230;-2.306;2022-12-18T00:24:25;-2.80;99.90
62916;DHT22;49010;51.230;-2.306;2022-12-18T00:28:07;-2.80;99.90
62916;DHT22;49010;51.230;-2.306;2022-12-18T00:31:49;-2.80;99.90
62916;DHT22;49010;51.230;-2.306;2022-12-18T00:35:31;-2.80;99.90
62916;DHT22;49010;51.230;-2.306;2022-12-18T00:39:13;-2.70;99.90
62916;DHT22;49010;51.230;-2.306;2022-12-18T00:42:55;-2.70;99.90
62916;DHT22;49010;51.230;-2.306;2022-12-18T00:46:37;-2.70;99.90
62916;DHT22;49010;51.230;-2.306;2022-12-18T00:50:19;-2.70;99.90
62916;DHT22;49010;51.230;-2.306;2022-12-18T00:54:00;-2.70;99.90
62916;DHT22;49010;51.230;-2.306;2022-12-18T00:57:42;-2.70;99.90
62916;DHT22;49010;51.230;-2.306;2022-12-18T01:01:24;-2.70;99.90
62916;DHT22;49010;51.230;-2.306;2022-12-18T01:05:07;-2.70;99.90
62916;DHT22;49010;51.230;-2.306;2022-12-18T01:08:49;-2.70;99.90
62916;DHT22;49010;51.230;-2.306;2022-12-18T01:12:31;-2.70;99.90
62916;DHT22;49010;51.230;-2.306;2022-12-18T01:16:14;-2.70;99.90
62916;DHT22;49010;51.230;-2.306;2022-12-18T01:19:57;-2.70;99.90
62916;DHT22;49010;51.230;-2.306;2022-12-18T01:23:39;-2.70;99.90
62916;DHT22;49010;51.230;-2.306;2022-12-18T01:27:21;-2.70;99.90
62916;DHT22;49010;51.230;-2.306;2022-12-18T01:35:02;-2.70;99.90
62916;DHT22;49010;51.230;-2.306;2022-12-18T01:38:45;-2.70;99.90
62916;DHT22;49010;51.230;-2.306;2022-12-18T01:42:26;-2.60;99.90
62916;DHT22;49010;51.230;-2.306;2022-12-18T01:46:08;-2.60;99.90
62916;DHT22;49010;51.230;-2.306;2022-12-18T01:49:51;-2.60;99.90
62916;DHT22;49010;51.230;-2.306;2022-12-18T01:53:33;-2.60;99.90
62916;DHT22;49010;51.230;-2.306;2022-12-18T01:57:15;-2.60;99.90
62916;DHT22;49010;51.230;-2.306;2022-12-18T02:00:57;-2.60;99.90
62916;DHT22;49010;51.230;-2.306;2022-12-18T02:04:39;-2.50;99.90
62916;DHT22;49010;51.230;-2.306;2022-12-18T02:12:27;-2.40;99.90
62916;DHT22;49010;51.230;-2.306;2022-12-18T02:16:27;-2.30;99.90
62916;DHT22;49010;51.230;-2.306;2022-12-18T02:20:34;-2.30;99.90
62916;DHT22;49010;51.230;-2.306;2022-12-18T02:28:13;-2.20;99.90
62916;DHT22;49010;51.230;-2.306;2022-12-18T02:31:58;-2.20;99.90
62916;DHT22;49010;51.230;-2.306;2022-12-18T02:35:41;-2.10;99.90
62916;DHT22;49010;51.230;-2.306;2022-12-18T02:39:25;-2.00;99.90
62916;DHT22;49010;51.230;-2.306;2022-12-18T02:43:13;-1.90;99.90
62916;DHT22;49010;51.230;-2.306;2022-12-18T02:46:55;-1.90;99.90
62916;DHT22;49010;51.230;-2.306;2022-12-18T02:50:55;-1.80;99.90
62916;DHT22;49010;51.230;-2.306;2022-12-18T02:58:57;-1.70;99.90
62916;DHT22;49010;51.230;-2.306;2022-12-18T03:06:42;-1.70;99.90
62916;DHT22;49010;51.230;-2.306;2022-12-18T03:10:28;-1.60;99.90
62916;DHT22;49010;51.230;-2.306;2022-12-18T03:14:13;-1.50;99.90
62916;DHT22;49010;51.230;-2.306;2022-12-18T03:18:03;-1.40;99.90
62916;DHT22;49010;51.230;-2.306;2022-12-18T03:21:49;-1.20;99.90
62916;DHT22;49010;51.230;-2.306;2022-12-18T03:25:34;-1.10;99.90
62916;DHT22;49010;51.230;-2.306;2022-12-18T03:29:25;-0.90;99.90
62916;DHT22;49010;51.230;-2.306;2022-12-18T03:33:21;-0.80;99.90
62916;DHT22;49010;51.230;-2.306;2022-12-18T03:37:06;-0.70;99.90
62916;DHT22;49010;51.230;-2.306;2022-12-18T03:48:41;-0.40;99.90
62916;DHT22;49010;51.230;-2.306;2022-12-18T03:56:08;-0.30;99.90
62916;DHT22;49010;51.230;-2.306;2022-12-18T03:59:55;-0.30;99.90
62916;DHT22;49010;51.230;-2.306;2022-12-18T04:03:38;-0.30;99.90
62916;DHT22;49010;51.230;-2.306;2022-12-18T04:07:22;-0.20;99.90
62916;DHT22;49010;51.230;-2.306;2022-12-18T04:11:04;-0.10;99.90
62916;DHT22;49010;51.230;-2.306;2022-12-18T04:14:46;-0.10;99.90
62916;DHT22;49010;51.230;-2.306;2022-12-18T04:18:28;0.00;99.90
62916;DHT22;49010;51.230;-2.306;2022-12-18T04:22:10;0.00;99.90
62916;DHT22;49010;51.230;-2.306;2022-12-18T04:25:52;0.20;99.90
62916;DHT22;49010;51.230;-2.306;2022-12-18T04:29:34;0.30;99.90
62916;DHT22;49010;51.230;-2.306;2022-12-18T04:33:15;0.40;99.90
62916;DHT22;49010;51.230;-2.306;2022-12-18T04:36:57;0.40;99.90
62916;DHT22;49010;51.230;-2.306;2022-12-18T04:40:39;0.50;99.90
62916;DHT22;49010;51.230;-2.306;2022-12-18T04:44:22;0.60;99.90
62916;DHT22;49010;51.230;-2.306;2022-12-18T04:48:04;0.70;99.90
62916;DHT22;49010;51.230;-2.306;2022-12-18T04:51:46;0.80;99.90
62916;DHT22;49010;51.230;-2.306;2022-12-18T04:55:28;0.80;99.90
62916;DHT22;49010;51.230;-2.306;2022-12-18T04:59:09;0.90;99.90
62916;DHT22;49010;51.230;-2.306;2022-12-18T05:02:51;0.90;99.90
62916;DHT22;49010;51.230;-2.306;2022-12-18T05:06:33;0.90;99.90
62916;DHT22;49010;51.230;-2.306;2022-12-18T05:10:15;1.00;99.90
62916;DHT22;49010;51.230;-2.306;2022-12-18T05:13:57;1.10;99.90
62916;DHT22;49010;51.230;-2.306;2022-12-18T05:17:39;1.30;99.90
62916;DHT22;49010;51.230;-2.306;2022-12-18T05:21:20;1.50;99.90
62916;DHT22;49010;51.230;-2.306;2022-12-18T05:25:02;1.60;99.90
62916;DHT22;49010;51.230;-2.306;2022-12-18T05:28:44;1.60;99.90
62916;DHT22;49010;51.230;-2.306;2022-12-18T05:32:26;1.70;99.90
62916;DHT22;49010;51.230;-2.306;2022-12-18T05:36:09;1.70;99.90
62916;DHT22;49010;51.230;-2.306;2022-12-18T05:39:51;1.70;99.90
62916;DHT22;49010;51.230;-2.306;2022-12-18T05:43:35;1.70;99.90
62916;DHT22;49010;51.230;-2.306;2022-12-18T05:47:17;1.80;99.90
62916;DHT22;49010;51.230;-2.306;2022-12-18T05:51:08;1.80;99.90
62916;DHT22;49010;51.230;-2.306;2022-12-18T05:54:50;1.90;99.90
62916;DHT22;49010;51.230;-2.306;2022-12-18T05:58:32;2.00;99.90
62916;DHT22;49010;51.230;-2.306;2022-12-18T06:02:15;2.00;99.90
62916;DHT22;49010;51.230;-2.306;2022-12-18T06:05:57;2.10;99.90
62916;DHT22;49010;51.230;-2.306;2022-12-18T06:09:39;2.20;99.90
62916;DHT22;49010;51.230;-2.306;2022-12-18T06:13:21;2.30;99.90
62916;DHT22;49010;51.230;-2.306;2022-12-18T06:17:02;2.40;99.90
62916;DHT22;49010;51.230;-2.306;2022-12-18T06:20:44;2.50;99.90
62916;DHT22;49010;51.230;-2.306;2022-12-18T06:24:26;2.50;99.90
62916;DHT22;49010;51.230;-2.306;2022-12-18T06:28:08;2.50;99.90
62916;DHT22;49010;51.230;-2.306;2022-12-18T06:31:51;2.50;99.90
62916;DHT22;49010;51.230;-2.306;2022-12-18T06:35:33;2.60;99.90
62916;DHT22;49010;51.230;-2.306;2022-12-18T06:39:14;2.60;99.90
62916;DHT22;49010;51.230;-2.306;2022-12-18T06:42:57;2.60;99.90
62916;DHT22;49010;51.230;-2.306;2022-12-18T06:46:39;2.60;99.90
62916;DHT22;49010;51.230;-2.306;2022-12-18T06:50:22;2.70;99.90
62916;DHT22;49010;51.230;-2.306;2022-12-18T06:54:04;2.80;99.90
62916;DHT22;49010;51.230;-2.306;2022-12-18T06:57:45;2.80;99.90
62916;DHT22;49010;51.230;-2.306;2022-12-18T07:01:27;2.80;99.90
62916;DHT22;49010;51.230;-2.306;2022-12-18T07:05:09;2.80;99.90
62916;DHT22;49010;51.230;-2.306;2022-12-18T07:08:53;2.90;99.90
62916;DHT22;49010;51.230;-2.306;2022-12-18T07:12:35;2.90;99.90
62916;DHT22;49010;51.230;-2.306;2022-12-18T07:16:19;3.00;99.90
62916;DHT22;49010;51.230;-2.306;2022-12-18T07:20:06;2.90;99.90
62916;DHT22;49010;51.230;-2.306;2022-12-18T07:23:48;3.00;99.90
62916;DHT22;49010;51.230;-2.306;2022-12-18T07:27:30;3.00;99.90
62916;DHT22;49010;51.230;-2.306;2022-12-18T07:31:19;3.00;99.90
62916;DHT22;49010;51.230;-2.306;2022-12-18T07:35:02;3.00;99.90
62916;DHT22;49010;51.230;-2.306;2022-12-18T07:38:47;3.10;99.90
62916;DHT22;49010;51.230;-2.306;2022-12-18T07:42:29;3.10;99.90
62916;DHT22;49010;51.230;-2.306;2022-12-18T07:46:14;3.10;99.90
62916;DHT22;49010;51.230;-2.306;2022-12-18T07:49:57;3.10;99.90
62916;DHT22;49010;51.230;-2.306;2022-12-18T07:53:40;3.20;99.90
62916;DHT22;49010;51.230;-2.306;2022-12-18T07:57:22;3.20;99.90
62916;DHT22;49010;51.230;-2.306;2022-12-18T08:01:24;3.20;99.90
62916;DHT22;49010;51.230;-2.306;2022-12-18T08:05:09;3.10;99.90
62916;DHT22;49010;51.230;-2.306;2022-12-18T08:08:52;3.10;99.90
62916;DHT22;49010;51.230;-2.306;2022-12-18T08:12:34;3.10;99.90
62916;DHT22;49010;51.230;-2.306;2022-12-18T08:16:16;3.20;99.90
62916;DHT22;49010;51.230;-2.306;2022-12-18T08:19:58;3.20;99.90
62916;DHT22;49010;51.230;-2.306;2022-12-18T08:23:41;3.20;99.90
62916;DHT22;49010;51.230;-2.306;2022-12-18T08:27:24;3.30;99.90
62916;DHT22;49010;51.230;-2.306;2022-12-18T08:31:11;3.20;99.90
62916;DHT22;49010;51.230;-2.306;2022-12-18T08:34:52;3.20;99.90
62916;DHT22;49010;51.230;-2.306;2022-12-18T08:38:34;3.30;99.90
62916;DHT22;49010;51.230;-2.306;2022-12-18T08:42:16;3.30;99.90
62916;DHT22;49010;51.230;-2.306;2022-12-18T08:46:17;3.30;99.90
62916;DHT22;49010;51.230;-2.306;2022-12-18T08:49:59;3.20;99.90
62916;DHT22;49010;51.230;-2.306;2022-12-18T08:53:41;3.20;99.90
62916;DHT22;49010;51.230;-2.306;2022-12-18T08:57:24;3.20;99.90
62916;DHT22;49010;51.230;-2.306;2022-12-18T09:01:07;3.20;99.90
62916;DHT22;49010;51.230;-2.306;2022-12-18T09:04:52;3.20;99.90
62916;DHT22;49010;51.230;-2.306;2022-12-18T09:08:38;3.20;99.90
62916;DHT22;49010;51.230;-2.306;2022-12-18T09:12:20;3.20;99.90
62916;DHT22;49010;51.230;-2.306;2022-12-18T09:16:03;3.20;99.90
62916;DHT22;49010;51.230;-2.306;2022-12-18T09:19:45;3.20;99.90
62916;DHT22;49010;51.230;-2.306;2022-12-18T09:23:26;3.20;99.90
62916;DHT22;49010;51.230;-2.306;2022-12-18T09:27:08;3.30;99.90
62916;DHT22;49010;51.230;-2.306;2022-12-18T09:30:50;3.30;99.90
62916;DHT22;49010;51.230;-2.306;2022-12-18T09:34:32;3.30;99.90
62916;DHT22;49010;51.230;-2.306;2022-12-18T09:38:17;3.30;99.90
62916;DHT22;49010;51.230;-2.306;2022-12-18T09:41:59;3.40;99.90
62916;DHT22;49010;51.230;-2.306;2022-12-18T09:45:46;3.40;99.90
62916;DHT22;49010;51.230;-2.306;2022-12-18T09:49:31;3.40;99.90
62916;DHT22;49010;51.230;-2.306;2022-12-18T09:53:24;3.50;99.90
62916;DHT22;49010;51.230;-2.306;2022-12-18T09:57:14;3.50;99.90
62916;DHT22;49010;51.230;-2.306;2022-12-18T10:00:56;3.50;99.90
62916;DHT22;49010;51.230;-2.306;2022-12-18T10:04:38;3.60;99.90
62916;DHT22;49010;51.230;-2.306;2022-12-18T10:20:46;3.60;99.90
62916;DHT22;49010;51.230;-2.306;2022-12-18T10:24:43;3.70;99.90
62916;DHT22;49010;51.230;-2.306;2022-12-18T10:28:26;3.70;99.90
62916;DHT22;49010;51.230;-2.306;2022-12-18T10:32:22;3.80;99.90
62916;DHT22;49010;51.230;-2.306;2022-12-18T10:36:04;3.80;99.90
62916;DHT22;49010;51.230;-2.306;2022-12-18T10:44:19;3.90;99.90
62916;DHT22;49010;51.230;-2.306;2022-12-18T10:48:01;3.90;99.90
62916;DHT22;49010;51.230;-2.306;2022-12-18T10:51:44;4.00;99.90
62916;DHT22;49010;51.230;-2.306;2022-12-18T10:55:34;4.00;99.90
62916;DHT22;49010;51.230;-2.306;2022-12-18T10:59:17;4.00;99.90
62916;DHT22;49010;51.230;-2.306;2022-12-18T11:02:59;4.10;99.90
62916;DHT22;49010;51.230;-2.306;2022-12-18T11:07:05;4.10;99.90
62916;DHT22;49010;51.230;-2.306;2022-12-18T11:10:47;4.10;99.90
62916;DHT22;49010;51.230;-2.306;2022-12-18T11:14:33;4.10;99.90
62916;DHT22;49010;51.230;-2.306;2022-12-18T11:18:33;4.20;99.90
62916;DHT22;49010;51.230;-2.306;2022-12-18T11:26:10;4.30;99.90
62916;DHT22;49010;51.230;-2.306;2022-12-18T11:29:52;4.30;99.90
62916;DHT22;49010;51.230;-2.306;2022-12-18T11:33:34;4.40;99.90
62916;DHT22;49010;51.230;-2.306;2022-12-18T11:37:17;4.40;99.90
62916;DHT22;49010;51.230;-2.306;2022-12-18T11:41:26;4.50;99.90
62916;DHT22;49010;51.230;-2.306;2022-12-18T11:49:49;4.50;99.90
62916;DHT22;49010;51.230;-2.306;2022-12-18T11:53:32;4.50;99.90
62916;DHT22;49010;51.230;-2.306;2022-12-18T11:57:32;4.50;99.90
62916;DHT22;49010;51.230;-2.306;2022-12-18T12:01:38;4.60;99.90
62916;DHT22;49010;51.230;-2.306;2022-12-18T12:21:51;4.90;99.90
62916;DHT22;49010;51.230;-2.306;2022-12-18T12:26:02;4.90;99.90
62916;DHT22;49010;51.230;-2.306;2022-12-18T12:30:30;5.00;99.90
62916;DHT22;49010;51.230;-2.306;2022-12-18T12:34:21;5.10;99.90
62916;DHT22;49010;51.230;-2.306;2022-12-18T12:41:49;5.20;99.90
62916;DHT22;49010;51.230;-2.306;2022-12-18T12:49:40;5.30;99.90
62916;DHT22;49010;51.230;-2.306;2022-12-18T12:53:34;5.40;99.90
62916;DHT22;49010;51.230;-2.306;2022-12-18T12:57:34;5.50;99.90
62916;DHT22;49010;51.230;-2.306;2022-12-18T13:05:38;5.60;99.90
62916;DHT22;49010;51.230;-2.306;2022-12-18T13:09:22;5.60;99.90
62916;DHT22;49010;51.230;-2.306;2022-12-18T13:13:11;5.70;99.90
62916;DHT22;49010;51.230;-2.306;2022-12-18T13:21:15;5.80;99.90
62916;DHT22;49010;51.230;-2.306;2022-12-18T13:25:00;5.90;99.90
62916;DHT22;49010;51.230;-2.306;2022-12-18T13:32:27;6.10;99.90
62916;DHT22;49010;51.230;-2.306;2022-12-18T13:39:54;6.30;99.90
62916;DHT22;49010;51.230;-2.306;2022-12-18T13:43:39;6.40;99.90
62916;DHT22;49010;51.230;-2.306;2022-12-18T13:47:34;6.60;99.90
62916;DHT22;49010;51.230;-2.306;2022-12-18T13:51:19;6.80;99.90
62916;DHT22;49010;51.230;-2.306;2022-12-18T13:55:05;6.90;99.90
62916;DHT22;49010;51.230;-2.306;2022-12-18T13:59:14;6.90;99.90
62916;DHT22;49010;51.230;-2.306;2022-12-18T14:02:57;7.00;99.90
62916;DHT22;49010;51.230;-2.306;2022-12-18T14:06:40;7.10;99.90
62916;DHT22;49010;51.230;-2.306;2022-12-18T14:10:25;7.20;99.90
62916;DHT22;49010;51.230;-2.306;2022-12-18T14:14:27;7.30;99.90
62916;DHT22;49010;51.230;-2.306;2022-12-18T14:21:55;7.50;99.90
62916;DHT22;49010;51.230;-2.306;2022-12-18T14:25:37;7.60;99.90
62916;DHT22;49010;51.230;-2.306;2022-12-18T14:33:14;7.70;99.90
62916;DHT22;49010;51.230;-2.306;2022-12-18T14:36:56;7.70;99.90
62916;DHT22;49010;51.230;-2.306;2022-12-18T14:40:38;7.70;99.90
62916;DHT22;49010;51.230;-2.306;2022-12-18T14:44:21;7.80;99.90
62916;DHT22;49010;51.230;-2.306;2022-12-18T14:48:07;7.80;99.90
62916;DHT22;49010;51.230;-2.306;2022-12-18T14:52:01;7.90;99.90
62916;DHT22;49010;51.230;-2.306;2022-12-18T14:55:48;7.90;99.90
62916;DHT22;49010;51.230;-2.306;2022-12-18T14:59:30;8.00;99.90
62916;DHT22;49010;51.230;-2.306;2022-12-18T15:03:18;8.00;99.90
62916;DHT22;49010;51.230;-2.306;2022-12-18T15:10:59;8.10;99.90
62916;DHT22;49010;51.230;-2.306;2022-12-18T15:14:43;8.10;99.90
62916;DHT22;49010;51.230;-2.306;2022-12-18T15:18:33;8.20;99.90
62916;DHT22;49010;51.230;-2.306;2022-12-18T15:22:29;8.30;99.90
62916;DHT22;49010;51.230;-2.306;2022-12-18T15:26:13;8.30;99.90
62916;DHT22;49010;51.230;-2.306;2022-12-18T15:30:22;8.30;99.90
62916;DHT22;49010;51.230;-2.306;2022-12-18T15:34:14;8.30;99.90
62916;DHT22;49010;51.230;-2.306;2022-12-18T15:37:59;8.30;99.90
62916;DHT22;49010;51.230;-2.306;2022-12-18T15:41:41;8.40;99.90
62916;DHT22;49010;51.230;-2.306;2022-12-18T15:45:43;8.40;99.90
62916;DHT22;49010;51.230;-2.306;2022-12-18T15:49:25;8.40;99.90
62916;DHT22;49010;51.230;-2.306;2022-12-18T15:53:09;8.50;99.90
62916;DHT22;49010;51.230;-2.306;2022-12-18T15:56:51;8.50;99.90
62916;DHT22;49010;51.230;-2.306;2022-12-18T16:00:52;8.50;99.90
62916;DHT22;49010;51.230;-2.306;2022-12-18T16:04:35;8.60;99.90
62916;DHT22;49010;51.230;-2.306;2022-12-18T16:08:17;8.60;99.90
62916;DHT22;49010;51.230;-2.306;2022-12-18T16:11:59;8.60;99.90
62916;DHT22;49010;51.230;-2.306;2022-12-18T16:15:41;8.60;99.90
62916;DHT22;49010;51.230;-2.306;2022-12-18T16:19:26;8.70;99.90
62916;DHT22;49010;51.230;-2.306;2022-12-18T16:23:08;8.70;99.90
62916;DHT22;49010;51.230;-2.306;2022-12-18T16:26:50;8.80;99.90
62916;DHT22;49010;51.230;-2.306;2022-12-18T16:30:35;8.80;99.90
62916;DHT22;49010;51.230;-2.306;2022-12-18T16:34:23;8.80;99.90
62916;DHT22;49010;51.230;-2.306;2022-12-18T16:38:12;8.90;99.90
62916;DHT22;49010;51.230;-2.306;2022-12-18T16:41:54;8.90;99.90
62916;DHT22;49010;51.230;-2.306;2022-12-18T16:45:37;8.90;99.90
62916;DHT22;49010;51.230;-2.306;2022-12-18T16:49:19;8.90;99.90
62916;DHT22;49010;51.230;-2.306;2022-12-18T16:53:01;9.00;99.90
62916;DHT22;49010;51.230;-2.306;2022-12-18T16:56:43;9.00;99.90
62916;DHT22;49010;51.230;-2.306;2022-12-18T17:00:28;9.00;99.90
62916;DHT22;49010;51.230;-2.306;2022-12-18T17:04:10;9.00;99.90
62916;DHT22;49010;51.230;-2.306;2022-12-18T17:07:52;9.00;99.90
62916;DHT22;49010;51.230;-2.306;2022-12-18T17:11:35;9.10;99.90
62916;DHT22;49010;51.230;-2.306;2022-12-18T17:15:19;9.00;99.90
62916;DHT22;49010;51.230;-2.306;2022-12-18T17:19:01;9.10;99.90
62916;DHT22;49010;51.230;-2.306;2022-12-18T17:22:45;9.10;99.90
62916;DHT22;49010;51.230;-2.306;2022-12-18T17:26:27;9.20;99.90
62916;DHT22;49010;51.230;-2.306;2022-12-18T17:30:09;9.20;99.90
62916;DHT22;49010;51.230;-2.306;2022-12-18T17:33:52;9.20;99.90
62916;DHT22;49010;51.230;-2.306;2022-12-18T17:37:34;9.20;99.90
62916;DHT22;49010;51.230;-2.306;2022-12-18T17:41:16;9.20;99.90
62916;DHT22;49010;51.230;-2.306;2022-12-18T17:44:57;9.20;99.90
62916;DHT22;49010;51.230;-2.306;2022-12-18T17:48:40;9.30;99.90
62916;DHT22;49010;51.230;-2.306;2022-12-18T17:52:22;9.30;99.90
62916;DHT22;49010;51.230;-2.306;2022-12-18T17:56:08;9.30;99.90
62916;DHT22;49010;51.230;-2.306;2022-12-18T17:59:50;9.40;99.90
62916;DHT22;49010;51.230;-2.306;2022-12-18T18:03:33;9.40;99.90
62916;DHT22;49010;51.230;-2.306;2022-12-18T18:07:16;9.50;99.90
62916;DHT22;49010;51.230;-2.306;2022-12-18T18:10:58;9.50;99.90
62916;DHT22;49010;51.230;-2.306;2022-12-18T18:14:59;9.50;99.90
62916;DHT22;49010;51.230;-2.306;2022-12-18T18:18:41;9.60;99.90
62916;DHT22;49010;51.230;-2.306;2022-12-18T18:22:23;9.60;99.90
62916;DHT22;49010;51.230;-2.306;2022-12-18T18:26:07;9.60;99.90
62916;DHT22;49010;51.230;-2.306;2022-12-18T18:29:49;9.70;99.90
62916;DHT22;49010;51.230;-2.306;2022-12-18T18:33:32;9.70;99.90
62916;DHT22;49010;51.230;-2.306;2022-12-18T18:37:13;9.70;99.90
62916;DHT22;49010;51.230;-2.306;2022-12-18T18:41:03;9.70;99.90
62916;DHT22;49010;51.230;-2.306;2022-12-18T18:44:45;9.80;99.90
62916;DHT22;49010;51.230;-2.306;2022-12-18T18:48:35;9.80;99.90
62916;DHT22;49010;51.230;-2.306;2022-12-18T18:52:18;9.90;99.90
62916;DHT22;49010;51.230;-2.306;2022-12-18T18:56:00;9.90;99.90
62916;DHT22;49010;51.230;-2.306;2022-12-18T19:00:02;10.00;99.90
62916;DHT22;49010;51.230;-2.306;2022-12-18T19:03:45;10.00;99.90
62916;DHT22;49010;51.230;-2.306;2022-12-18T19:07:27;10.10;99.90
62916;DHT22;49010;51.230;-2.306;2022-12-18T19:11:12;10.10;99.90
62916;DHT22;49010;51.230;-2.306;2022-12-18T19:15:17;10.10;99.90
62916;DHT22;49010;51.230;-2.306;2022-12-18T19:18:59;10.20;99.90
62916;DHT22;49010;51.230;-2.306;2022-12-18T19:22:43;10.20;99.90
62916;DHT22;49010;51.230;-2.306;2022-12-18T19:26:36;10.20;99.90
62916;DHT22;49010;51.230;-2.306;2022-12-18T19:30:18;10.30;99.90
62916;DHT22;49010;51.230;-2.306;2022-12-18T19:34:00;10.40;99.90
62916;DHT22;49010;51.230;-2.306;2022-12-18T19:37:41;10.40;99.90
62916;DHT22;49010;51.230;-2.306;2022-12-18T19:41:24;10.50;99.90
62916;DHT22;49010;51.230;-2.306;2022-12-18T19:45:09;10.50;99.90
62916;DHT22;49010;51.230;-2.306;2022-12-18T19:48:51;10.50;99.90
62916;DHT22;49010;51.230;-2.306;2022-12-18T19:52:33;10.60;99.90
62916;DHT22;49010;51.230;-2.306;2022-12-18T19:56:17;10.70;99.90
62916;DHT22;49010;51.230;-2.306;2022-12-18T19:59:59;10.70;99.90
62916;DHT22;49010;51.230;-2.306;2022-12-18T20:03:41;10.70;99.90
62916;DHT22;49010;51.230;-2.306;2022-12-18T20:07:28;10.80;99.90
62916;DHT22;49010;51.230;-2.306;2022-12-18T20:11:10;10.80;99.90
62916;DHT22;49010;51.230;-2.306;2022-12-18T20:14:52;10.90;99.90
62916;DHT22;49010;51.230;-2.306;2022-12-18T20:18:34;10.90;99.90
62916;DHT22;49010;51.230;-2.306;2022-12-18T20:22:16;10.90;99.90
62916;DHT22;49010;51.230;-2.306;2022-12-18T20:25:58;10.90;99.90
62916;DHT22;49010;51.230;-2.306;2022-12-18T20:29:40;10.90;99.90
62916;DHT22;49010;51.230;-2.306;2022-12-18T20:33:24;10.90;99.90
62916;DHT22;49010;51.230;-2.306;2022-12-18T20:37:05;11.00;99.90
62916;DHT22;49010;51.230;-2.306;2022-12-18T20:40:47;11.00;99.90
62916;DHT22;49010;51.230;-2.306;2022-12-18T20:44:29;11.00;99.90
62916;DHT22;49010;51.230;-2.306;2022-12-18T20:48:11;11.00;99.90
62916;DHT22;49010;51.230;-2.306;2022-12-18T20:51:54;11.00;99.90
62916;DHT22;49010;51.230;-2.306;2022-12-18T20:55:40;11.10;99.90
62916;DHT22;49010;51.230;-2.306;2022-12-18T20:59:23;11.10;99.90
62916;DHT22;49010;51.230;-2.306;2022-12-18T21:03:06;11.10;99.90
62916;DHT22;49010;51.230;-2.306;2022-12-18T21:06:49;11.10;99.90
62916;DHT22;49010;51.230;-2.306;2022-12-18T21:10:41;11.20;99.90
62916;DHT22;49010;51.230;-2.306;2022-12-18T21:14:26;11.20;99.90
62916;DHT22;49010;51.230;-2.306;2022-12-18T21:18:08;11.20;99.90
62916;DHT22;49010;51.230;-2.306;2022-12-18T21:21:51;11.30;99.90
62916;DHT22;49010;51.230;-2.306;2022-12-18T21:25:33;11.30;99.90
62916;DHT22;49010;51.230;-2.306;2022-12-18T21:29:20;11.40;99.90
62916;DHT22;49010;51.230;-2.306;2022-12-18T21:33:02;11.40;99.90
62916;DHT22;49010;51.230;-2.306;2022-12-18T21:36:44;11.50;99.90
62916;DHT22;49010;51.230;-2.306;2022-12-18T21:40:27;11.50;99.90
62916;DHT22;49010;51.230;-2.306;2022-12-18T21:44:14;11.50;99.90
62916;DHT22;49010;51.230;-2.306;2022-12-18T21:47:59;11.50;99.90
62916;DHT22;49010;51.230;-2.306;2022-12-18T21:51:41;11.60;99.90
62916;DHT22;49010;51.230;-2.306;2022-12-18T21:55:22;11.70;99.90
62916;DHT22;49010;51.230;-2.306;2022-12-18T21:59:04;11.70;99.90
62916;DHT22;49010;51.230;-2.306;2022-12-18T22:02:47;11.70;99.90
62916;DHT22;49010;51.230;-2.306;2022-12-18T22:06:53;11.80;99.90
62916;DHT22;49010;51.230;-2.306;2022-12-18T22:10:35;11.80;99.90
62916;DHT22;49010;51.230;-2.306;2022-12-18T22:14:19;11.80;99.90
62916;DHT22;49010;51.230;-2.306;2022-12-18T22:18:01;11.80;99.90
62916;DHT22;49010;51.230;-2.306;2022-12-18T22:21:45;11.80;99.90
62916;DHT22;49010;51.230;-2.306;2022-12-18T22:25:27;11.90;99.90
62916;DHT22;49010;51.230;-2.306;2022-12-18T22:29:15;11.90;99.90
62916;DHT22;49010;51.230;-2.306;2022-12-18T22:33:15;11.90;99.90
62916;DHT22;49010;51.230;-2.306;2022-12-18T22:36:57;11.90;99.90
62916;DHT22;49010;51.230;-2.306;2022-12-18T22:40:39;11.90;99.90
62916;DHT22;49010;51.230;-2.306;2022-12-18T22:44:21;11.90;99.90
62916;DHT22;49010;51.230;-2.306;2022-12-18T22:48:03;11.90;99.90
62916;DHT22;49010;51.230;-2.306;2022-12-18T22:51:45;11.90;99.90
62916;DHT22;49010;51.230;-2.306;2022-12-18T22:55:27;11.90;99.90
62916;DHT22;49010;51.230;-2.306;2022-12-18T22:59:20;11.90;99.90
62916;DHT22;49010;51.230;-2.306;2022-12-18T23:03:02;11.90;99.90
62916;DHT22;49010;51.230;-2.306;2022-12-18T23:06:46;11.90;99.90
62916;DHT22;49010;51.230;-2.306;2022-12-18T23:10:28;11.90;99.90
62916;DHT22;49010;51.230;-2.306;2022-12-18T23:14:10;12.00;99.90
62916;DHT22;49010;51.230;-2.306;2022-12-18T23:17:52;12.00;99.90
62916;DHT22;49010;51.230;-2.306;2022-12-18T23:21:34;11.90;99.90
62916;DHT22;49010;51.230;-2.306;2022-12-18T23:25:17;12.00;99.90
62916;DHT22;49010;51.230;-2.306;2022-12-18T23:29:00;12.00;99.90
62916;DHT22;49010;51.230;-2.306;2022-12-18T23:32:41;12.00;99.90
62916;DHT22;49010;51.230;-2.306;2022-12-18T23:36:24;12.00;99.90
62916;DHT22;49010;51.230;-2.306;2022-12-18T23:40:06;12.10;99.90
62916;DHT22;49010;51.230;-2.306;2022-12-18T23:43:48;12.10;99.90
62916;DHT22;49010;51.230;-2.306;2022-12-18T23:47:30;12.10;99.90
62916;DHT22;49010;51.230;-2.306;2022-12-18T23:51:14;12.10;99.90
62916;DHT22;49010;51.230;-2.306;2022-12-18T23:54:56;12.10;99.90
62916;DHT22;49010;51.230;-2.306;2022-12-18T23:58:38;12.10;99.90
